sensor_id;sensor_type;location;lat;lon;timestamp;P1;durP1;ratioP1;P2;durP2;ratioP2
10479;SDS011;12789;42.610;23.040;2024-01-27T00:01:44;86.30;;;36.10;;
10479;SDS011;12789;42.610;23.040;2024-01-27T00:04:11;77.27;;;35.03;;
10479;SDS011;12789;42.610;23.040;2024-01-27T00:06:38;81.60;;;35.83;;
10479;SDS011;12789;42.610;23.040;2024-01-27T00:09:05;82.83;;;35.17;;
10479;SDS011;12789;42.610;23.040;2024-01-27T00:11:32;86.03;;;36.10;;
10479;SDS011;12789;42.610;23.040;2024-01-27T00:13:58;83.97;;;37.27;;
10479;SDS011;12789;42.610;23.040;2024-01-27T00:16:26;88.93;;;36.87;;
10479;SDS011;12789;42.610;23.040;2024-01-27T00:18:54;84.03;;;35.83;;
10479;SDS011;12789;42.610;23.040;2024-01-27T00:21:21;89.87;;;35.37;;
10479;SDS011;12789;42.610;23.040;2024-01-27T00:23:48;204.03;;;68.57;;
10479;SDS011;12789;42.610;23.040;2024-01-27T00:26:14;151.07;;;57.07;;
10479;SDS011;12789;42.610;23.040;2024-01-27T00:28:41;109.73;;;44.03;;
10479;SDS011;12789;42.610;23.040;2024-01-27T00:31:08;94.47;;;40.10;;
10479;SDS011;12789;42.610;23.040;2024-01-27T00:33:35;95.67;;;40.80;;
10479;SDS011;12789;42.610;23.040;2024-01-27T00:36:04;102.87;;;41.03;;
10479;SDS011;12789;42.610;23.040;2024-01-27T00:38:31;102.10;;;43.10;;
10479;SDS011;12789;42.610;23.040;2024-01-27T00:40:58;92.03;;;40.27;;
10479;SDS011;12789;42.610;23.040;2024-01-27T00:43:24;100.20;;;42.17;;
10479;SDS011;12789;42.610;23.040;2024-01-27T00:45:51;104.53;;;40.30;;
10479;SDS011;12789;42.610;23.040;2024-01-27T00:48:18;81.10;;;38.77;;
10479;SDS011;12789;42.610;23.040;2024-01-27T00:50:45;62.17;;;30.37;;
10479;SDS011;12789;42.610;23.040;2024-01-27T00:53:13;57.73;;;26.10;;
10479;SDS011;12789;42.610;23.040;2024-01-27T00:55:40;64.27;;;27.23;;
10479;SDS011;12789;42.610;23.040;2024-01-27T00:58:07;56.30;;;26.20;;
10479;SDS011;12789;42.610;23.040;2024-01-27T01:00:34;57.93;;;26.93;;
10479;SDS011;12789;42.610;23.040;2024-01-27T01:03:00;71.43;;;29.00;;
10479;SDS011;12789;42.610;23.040;2024-01-27T01:05:27;71.37;;;30.43;;
10479;SDS011;12789;42.610;23.040;2024-01-27T01:07:54;71.70;;;31.57;;
10479;SDS011;12789;42.610;23.040;2024-01-27T01:10:22;77.37;;;34.77;;
10479;SDS011;12789;42.610;23.040;2024-01-27T01:12:49;67.80;;;32.90;;
10479;SDS011;12789;42.610;23.040;2024-01-27T01:15:16;72.97;;;33.33;;
10479;SDS011;12789;42.610;23.040;2024-01-27T01:17:43;69.97;;;30.97;;
10479;SDS011;12789;42.610;23.040;2024-01-27T01:20:10;71.13;;;30.67;;
10479;SDS011;12789;42.610;23.040;2024-01-27T01:22:37;62.00;;;29.30;;
10479;SDS011;12789;42.610;23.040;2024-01-27T01:25:04;75.43;;;32.37;;
10479;SDS011;12789;42.610;23.040;2024-01-27T01:27:33;83.30;;;35.63;;
10479;SDS011;12789;42.610;23.040;2024-01-27T01:30:00;80.20;;;34.70;;
10479;SDS011;12789;42.610;23.040;2024-01-27T01:32:26;81.80;;;33.93;;
10479;SDS011;12789;42.610;23.040;2024-01-27T01:34:53;84.80;;;35.57;;
10479;SDS011;12789;42.610;23.040;2024-01-27T01:37:20;81.10;;;33.67;;
10479;SDS011;12789;42.610;23.040;2024-01-27T01:39:47;71.47;;;31.20;;
10479;SDS011;12789;42.610;23.040;2024-01-27T01:42:13;78.20;;;34.13;;
10479;SDS011;12789;42.610;23.040;2024-01-27T01:44:41;80.03;;;34.50;;
10479;SDS011;12789;42.610;23.040;2024-01-27T01:47:08;77.63;;;31.77;;
10479;SDS011;12789;42.610;23.040;2024-01-27T01:49:35;79.43;;;33.90;;
10479;SDS011;12789;42.610;23.040;2024-01-27T01:52:03;71.43;;;33.97;;
10479;SDS011;12789;42.610;23.040;2024-01-27T01:54:30;67.77;;;32.70;;
10479;SDS011;12789;42.610;23.040;2024-01-27T01:56:57;73.63;;;33.10;;
10479;SDS011;12789;42.610;23.040;2024-01-27T01:59:24;72.90;;;32.70;;
10479;SDS011;12789;42.610;23.040;2024-01-27T02:01:52;149.83;;;59.57;;
10479;SDS011;12789;42.610;23.040;2024-01-27T02:04:19;89.17;;;38.13;;
10479;SDS011;12789;42.610;23.040;2024-01-27T02:06:46;80.87;;;33.73;;
10479;SDS011;12789;42.610;23.040;2024-01-27T02:09:13;81.70;;;34.80;;
10479;SDS011;12789;42.610;23.040;2024-01-27T02:11:39;94.17;;;39.23;;
10479;SDS011;12789;42.610;23.040;2024-01-27T02:14:06;73.27;;;33.37;;
10479;SDS011;12789;42.610;23.040;2024-01-27T02:16:33;63.63;;;27.87;;
10479;SDS011;12789;42.610;23.040;2024-01-27T02:19:01;54.93;;;28.17;;
10479;SDS011;12789;42.610;23.040;2024-01-27T02:21:29;70.00;;;28.17;;
10479;SDS011;12789;42.610;23.040;2024-01-27T02:23:55;59.73;;;26.23;;
10479;SDS011;12789;42.610;23.040;2024-01-27T02:26:23;57.80;;;25.67;;
10479;SDS011;12789;42.610;23.040;2024-01-27T02:28:50;60.57;;;24.87;;
10479;SDS011;12789;42.610;23.040;2024-01-27T02:31:17;56.33;;;24.53;;
10479;SDS011;12789;42.610;23.040;2024-01-27T02:33:44;62.83;;;26.27;;
10479;SDS011;12789;42.610;23.040;2024-01-27T02:36:10;54.83;;;25.43;;
10479;SDS011;12789;42.610;23.040;2024-01-27T02:38:37;54.03;;;24.77;;
10479;SDS011;12789;42.610;23.040;2024-01-27T02:41:04;57.53;;;24.63;;
10479;SDS011;12789;42.610;23.040;2024-01-27T02:43:32;53.00;;;24.27;;
10479;SDS011;12789;42.610;23.040;2024-01-27T02:45:59;56.37;;;24.40;;
10479;SDS011;12789;42.610;23.040;2024-01-27T02:48:26;70.90;;;28.73;;
10479;SDS011;12789;42.610;23.040;2024-01-27T02:50:53;70.87;;;26.80;;
10479;SDS011;12789;42.610;23.040;2024-01-27T02:53:19;73.57;;;29.63;;
10479;SDS011;12789;42.610;23.040;2024-01-27T02:55:46;56.93;;;25.00;;
10479;SDS011;12789;42.610;23.040;2024-01-27T02:58:13;51.47;;;23.03;;
10479;SDS011;12789;42.610;23.040;2024-01-27T03:00:41;50.83;;;23.03;;
10479;SDS011;12789;42.610;23.040;2024-01-27T03:03:08;53.50;;;23.17;;
10479;SDS011;12789;42.610;23.040;2024-01-27T03:05:35;44.87;;;21.17;;
10479;SDS011;12789;42.610;23.040;2024-01-27T03:08:01;40.73;;;18.90;;
10479;SDS011;12789;42.610;23.040;2024-01-27T03:10:28;49.93;;;19.97;;
10479;SDS011;12789;42.610;23.040;2024-01-27T03:12:56;43.07;;;20.27;;
10479;SDS011;12789;42.610;23.040;2024-01-27T03:15:23;48.47;;;20.90;;
10479;SDS011;12789;42.610;23.040;2024-01-27T03:17:51;67.43;;;28.00;;
10479;SDS011;12789;42.610;23.040;2024-01-27T03:20:18;65.87;;;30.47;;
10479;SDS011;12789;42.610;23.040;2024-01-27T03:22:44;85.67;;;34.87;;
10479;SDS011;12789;42.610;23.040;2024-01-27T03:25:11;62.90;;;26.33;;
10479;SDS011;12789;42.610;23.040;2024-01-27T03:27:39;54.67;;;22.33;;
10479;SDS011;12789;42.610;23.040;2024-01-27T03:30:06;42.10;;;18.57;;
10479;SDS011;12789;42.610;23.040;2024-01-27T03:32:34;48.63;;;19.87;;
10479;SDS011;12789;42.610;23.040;2024-01-27T03:35:03;54.07;;;21.67;;
10479;SDS011;12789;42.610;23.040;2024-01-27T03:37:31;56.73;;;23.20;;
10479;SDS011;12789;42.610;23.040;2024-01-27T03:39:58;48.93;;;19.03;;
10479;SDS011;12789;42.610;23.040;2024-01-27T03:42:25;34.87;;;16.80;;
10479;SDS011;12789;42.610;23.040;2024-01-27T03:44:51;31.77;;;15.10;;
10479;SDS011;12789;42.610;23.040;2024-01-27T03:47:18;34.63;;;14.53;;
10479;SDS011;12789;42.610;23.040;2024-01-27T03:49:45;33.73;;;15.20;;
10479;SDS011;12789;42.610;23.040;2024-01-27T03:52:13;38.67;;;15.87;;
10479;SDS011;12789;42.610;23.040;2024-01-27T03:54:40;35.60;;;16.13;;
10479;SDS011;12789;42.610;23.040;2024-01-27T03:57:07;30.80;;;15.93;;
10479;SDS011;12789;42.610;23.040;2024-01-27T03:59:33;37.20;;;17.67;;
10479;SDS011;12789;42.610;23.040;2024-01-27T04:02:00;37.90;;;17.00;;
10479;SDS011;12789;42.610;23.040;2024-01-27T04:04:27;34.40;;;17.33;;
10479;SDS011;12789;42.610;23.040;2024-01-27T04:06:54;30.30;;;14.10;;
10479;SDS011;12789;42.610;23.040;2024-01-27T04:09:22;32.17;;;14.07;;
10479;SDS011;12789;42.610;23.040;2024-01-27T04:11:49;31.03;;;14.67;;
10479;SDS011;12789;42.610;23.040;2024-01-27T04:14:16;30.80;;;14.50;;
10479;SDS011;12789;42.610;23.040;2024-01-27T04:16:42;38.37;;;13.97;;
10479;SDS011;12789;42.610;23.040;2024-01-27T04:19:09;35.97;;;14.97;;
10479;SDS011;12789;42.610;23.040;2024-01-27T04:21:38;36.40;;;16.53;;
10479;SDS011;12789;42.610;23.040;2024-01-27T04:24:05;54.70;;;17.93;;
10479;SDS011;12789;42.610;23.040;2024-01-27T04:26:36;35.67;;;15.53;;
10479;SDS011;12789;42.610;23.040;2024-01-27T04:29:04;36.10;;;14.27;;
10479;SDS011;12789;42.610;23.040;2024-01-27T04:31:31;50.93;;;19.90;;
10479;SDS011;12789;42.610;23.040;2024-01-27T04:33:58;46.47;;;19.43;;
10479;SDS011;12789;42.610;23.040;2024-01-27T04:36:25;42.03;;;19.17;;
10479;SDS011;12789;42.610;23.040;2024-01-27T04:38:53;44.67;;;17.70;;
10479;SDS011;12789;42.610;23.040;2024-01-27T04:41:19;51.83;;;19.13;;
10479;SDS011;12789;42.610;23.040;2024-01-27T04:43:48;49.97;;;19.63;;
10479;SDS011;12789;42.610;23.040;2024-01-27T04:46:15;57.33;;;23.90;;
10479;SDS011;12789;42.610;23.040;2024-01-27T04:48:42;49.90;;;21.03;;
10479;SDS011;12789;42.610;23.040;2024-01-27T04:51:08;60.70;;;23.63;;
10479;SDS011;12789;42.610;23.040;2024-01-27T04:53:35;57.27;;;24.73;;
10479;SDS011;12789;42.610;23.040;2024-01-27T04:56:05;53.07;;;19.53;;
10479;SDS011;12789;42.610;23.040;2024-01-27T04:58:33;43.53;;;17.67;;
10479;SDS011;12789;42.610;23.040;2024-01-27T05:01:01;42.00;;;17.40;;
10479;SDS011;12789;42.610;23.040;2024-01-27T05:03:28;38.17;;;17.10;;
10479;SDS011;12789;42.610;23.040;2024-01-27T05:05:54;53.73;;;16.60;;
10479;SDS011;12789;42.610;23.040;2024-01-27T05:08:21;43.40;;;18.20;;
10479;SDS011;12789;42.610;23.040;2024-01-27T05:10:48;64.80;;;20.07;;
10479;SDS011;12789;42.610;23.040;2024-01-27T05:13:15;56.10;;;23.43;;
10479;SDS011;12789;42.610;23.040;2024-01-27T05:15:42;58.60;;;23.83;;
10479;SDS011;12789;42.610;23.040;2024-01-27T05:18:12;52.03;;;23.23;;
10479;SDS011;12789;42.610;23.040;2024-01-27T05:20:38;53.77;;;22.00;;
10479;SDS011;12789;42.610;23.040;2024-01-27T05:23:05;58.03;;;25.00;;
10479;SDS011;12789;42.610;23.040;2024-01-27T05:25:31;50.20;;;21.90;;
10479;SDS011;12789;42.610;23.040;2024-01-27T05:27:58;43.43;;;18.37;;
10479;SDS011;12789;42.610;23.040;2024-01-27T05:30:24;46.80;;;18.10;;
10479;SDS011;12789;42.610;23.040;2024-01-27T05:32:51;41.03;;;18.00;;
10479;SDS011;12789;42.610;23.040;2024-01-27T05:35:19;42.23;;;18.93;;
10479;SDS011;12789;42.610;23.040;2024-01-27T05:37:46;61.57;;;25.30;;
10479;SDS011;12789;42.610;23.040;2024-01-27T05:40:13;48.70;;;21.10;;
10479;SDS011;12789;42.610;23.040;2024-01-27T05:42:40;38.43;;;18.73;;
10479;SDS011;12789;42.610;23.040;2024-01-27T05:45:08;47.53;;;21.77;;
10479;SDS011;12789;42.610;23.040;2024-01-27T05:47:35;41.93;;;20.07;;
10479;SDS011;12789;42.610;23.040;2024-01-27T05:50:02;50.93;;;26.53;;
10479;SDS011;12789;42.610;23.040;2024-01-27T05:52:31;33.67;;;18.60;;
10479;SDS011;12789;42.610;23.040;2024-01-27T05:54:57;34.43;;;18.37;;
10479;SDS011;12789;42.610;23.040;2024-01-27T05:57:24;42.93;;;17.27;;
10479;SDS011;12789;42.610;23.040;2024-01-27T05:59:51;41.23;;;19.17;;
10479;SDS011;12789;42.610;23.040;2024-01-27T06:02:18;41.23;;;21.27;;
10479;SDS011;12789;42.610;23.040;2024-01-27T06:04:44;42.53;;;17.50;;
10479;SDS011;12789;42.610;23.040;2024-01-27T06:07:11;36.17;;;15.93;;
10479;SDS011;12789;42.610;23.040;2024-01-27T06:09:39;30.67;;;15.17;;
10479;SDS011;12789;42.610;23.040;2024-01-27T06:12:06;34.53;;;16.80;;
10479;SDS011;12789;42.610;23.040;2024-01-27T06:14:33;33.93;;;15.87;;
10479;SDS011;12789;42.610;23.040;2024-01-27T06:17:00;30.63;;;15.93;;
10479;SDS011;12789;42.610;23.040;2024-01-27T06:19:27;33.30;;;15.87;;
10479;SDS011;12789;42.610;23.040;2024-01-27T06:21:54;37.37;;;18.47;;
10479;SDS011;12789;42.610;23.040;2024-01-27T06:24:21;34.37;;;18.43;;
10479;SDS011;12789;42.610;23.040;2024-01-27T06:26:49;36.77;;;18.80;;
10479;SDS011;12789;42.610;23.040;2024-01-27T06:29:16;34.07;;;18.20;;
10479;SDS011;12789;42.610;23.040;2024-01-27T06:31:43;50.07;;;22.90;;
10479;SDS011;12789;42.610;23.040;2024-01-27T06:34:10;47.20;;;21.27;;
10479;SDS011;12789;42.610;23.040;2024-01-27T06:36:37;35.23;;;19.63;;
10479;SDS011;12789;42.610;23.040;2024-01-27T06:39:04;32.60;;;15.87;;
10479;SDS011;12789;42.610;23.040;2024-01-27T06:41:31;30.17;;;14.27;;
10479;SDS011;12789;42.610;23.040;2024-01-27T06:44:57;27.40;;;13.20;;
10479;SDS011;12789;42.610;23.040;2024-01-27T06:48:23;23.10;;;14.67;;
10479;SDS011;12789;42.610;23.040;2024-01-27T06:51:48;31.17;;;16.83;;
10479;SDS011;12789;42.610;23.040;2024-01-27T06:55:09;35.90;;;18.30;;
10479;SDS011;12789;42.610;23.040;2024-01-27T06:58:36;25.60;;;15.77;;
10479;SDS011;12789;42.610;23.040;2024-01-27T07:01:45;27.87;;;14.13;;
10479;SDS011;12789;42.610;23.040;2024-01-27T07:04:42;33.50;;;17.20;;
10479;SDS011;12789;42.610;23.040;2024-01-27T07:07:09;40.13;;;18.47;;
10479;SDS011;12789;42.610;23.040;2024-01-27T07:09:36;35.67;;;19.70;;
10479;SDS011;12789;42.610;23.040;2024-01-27T07:13:01;44.70;;;23.90;;
10479;SDS011;12789;42.610;23.040;2024-01-27T07:15:33;45.60;;;23.40;;
10479;SDS011;12789;42.610;23.040;2024-01-27T07:18:57;36.17;;;21.57;;
10479;SDS011;12789;42.610;23.040;2024-01-27T07:22:22;47.37;;;22.80;;
10479;SDS011;12789;42.610;23.040;2024-01-27T07:25:48;55.00;;;28.00;;
10479;SDS011;12789;42.610;23.040;2024-01-27T07:29:13;55.23;;;30.23;;
10479;SDS011;12789;42.610;23.040;2024-01-27T07:32:39;74.50;;;41.43;;
10479;SDS011;12789;42.610;23.040;2024-01-27T07:36:05;59.87;;;28.77;;
10479;SDS011;12789;42.610;23.040;2024-01-27T07:39:30;59.00;;;27.17;;
10479;SDS011;12789;42.610;23.040;2024-01-27T07:42:56;44.10;;;25.33;;
10479;SDS011;12789;42.610;23.040;2024-01-27T07:45:40;48.77;;;24.63;;
10479;SDS011;12789;42.610;23.040;2024-01-27T07:49:07;51.30;;;24.10;;
10479;SDS011;12789;42.610;23.040;2024-01-27T07:52:34;46.63;;;24.33;;
10479;SDS011;12789;42.610;23.040;2024-01-27T07:56:00;48.20;;;26.00;;
10479;SDS011;12789;42.610;23.040;2024-01-27T07:59:26;54.80;;;29.30;;
10479;SDS011;12789;42.610;23.040;2024-01-27T08:02:51;60.10;;;30.70;;
10479;SDS011;12789;42.610;23.040;2024-01-27T08:06:18;47.10;;;26.47;;
10479;SDS011;12789;42.610;23.040;2024-01-27T08:09:43;104.13;;;55.07;;
10479;SDS011;12789;42.610;23.040;2024-01-27T08:13:08;269.57;;;138.97;;
10479;SDS011;12789;42.610;23.040;2024-01-27T08:16:34;63.93;;;36.57;;
10479;SDS011;12789;42.610;23.040;2024-01-27T08:19:59;48.47;;;26.53;;
10479;SDS011;12789;42.610;23.040;2024-01-27T08:23:30;53.93;;;27.50;;
10479;SDS011;12789;42.610;23.040;2024-01-27T08:26:55;56.63;;;29.20;;
10479;SDS011;12789;42.610;23.040;2024-01-27T08:30:21;55.03;;;29.63;;
10479;SDS011;12789;42.610;23.040;2024-01-27T08:33:46;62.97;;;35.47;;
10479;SDS011;12789;42.610;23.040;2024-01-27T08:37:17;83.93;;;42.70;;
10479;SDS011;12789;42.610;23.040;2024-01-27T08:40:45;18.53;;;10.17;;
10479;SDS011;12789;42.610;23.040;2024-01-27T08:44:10;59.73;;;31.53;;
10479;SDS011;12789;42.610;23.040;2024-01-27T08:47:36;30.13;;;17.33;;
10479;SDS011;12789;42.610;23.040;2024-01-27T08:51:01;10.43;;;7.13;;
10479;SDS011;12789;42.610;23.040;2024-01-27T08:54:26;136.53;;;67.73;;
10479;SDS011;12789;42.610;23.040;2024-01-27T08:57:53;16.20;;;10.43;;
10479;SDS011;12789;42.610;23.040;2024-01-27T09:01:19;18.13;;;9.53;;
10479;SDS011;12789;42.610;23.040;2024-01-27T09:04:44;8.70;;;5.77;;
10479;SDS011;12789;42.610;23.040;2024-01-27T09:07:34;19.50;;;8.73;;
10479;SDS011;12789;42.610;23.040;2024-01-27T09:11:02;15.03;;;8.17;;
10479;SDS011;12789;42.610;23.040;2024-01-27T09:14:32;17.10;;;11.13;;
10479;SDS011;12789;42.610;23.040;2024-01-27T09:16:59;13.50;;;8.23;;
10479;SDS011;12789;42.610;23.040;2024-01-27T09:19:27;13.27;;;8.23;;
10479;SDS011;12789;42.610;23.040;2024-01-27T09:21:56;29.63;;;14.20;;
10479;SDS011;12789;42.610;23.040;2024-01-27T09:24:28;7.30;;;5.20;;
10479;SDS011;12789;42.610;23.040;2024-01-27T09:26:55;5.70;;;4.37;;
10479;SDS011;12789;42.610;23.040;2024-01-27T09:29:22;10.13;;;5.90;;
10479;SDS011;12789;42.610;23.040;2024-01-27T09:31:50;25.37;;;14.20;;
10479;SDS011;12789;42.610;23.040;2024-01-27T09:34:17;20.53;;;10.47;;
10479;SDS011;12789;42.610;23.040;2024-01-27T09:36:43;88.47;;;45.73;;
10479;SDS011;12789;42.610;23.040;2024-01-27T09:39:11;68.17;;;38.50;;
10479;SDS011;12789;42.610;23.040;2024-01-27T09:41:38;341.20;;;222.93;;
10479;SDS011;12789;42.610;23.040;2024-01-27T09:44:06;53.93;;;27.13;;
10479;SDS011;12789;42.610;23.040;2024-01-27T09:46:33;22.07;;;11.33;;
10479;SDS011;12789;42.610;23.040;2024-01-27T09:49:01;11.93;;;6.77;;
10479;SDS011;12789;42.610;23.040;2024-01-27T09:51:30;18.40;;;9.27;;
10479;SDS011;12789;42.610;23.040;2024-01-27T09:53:57;9.83;;;5.87;;
10479;SDS011;12789;42.610;23.040;2024-01-27T09:56:24;13.57;;;7.23;;
10479;SDS011;12789;42.610;23.040;2024-01-27T09:58:51;18.60;;;9.80;;
10479;SDS011;12789;42.610;23.040;2024-01-27T10:01:20;20.33;;;10.90;;
10479;SDS011;12789;42.610;23.040;2024-01-27T10:03:50;10.03;;;7.27;;
10479;SDS011;12789;42.610;23.040;2024-01-27T10:06:19;7.67;;;5.37;;
10479;SDS011;12789;42.610;23.040;2024-01-27T10:08:53;10.00;;;5.97;;
10479;SDS011;12789;42.610;23.040;2024-01-27T10:11:21;11.40;;;7.77;;
10479;SDS011;12789;42.610;23.040;2024-01-27T10:13:53;11.50;;;7.07;;
10479;SDS011;12789;42.610;23.040;2024-01-27T10:16:21;7.80;;;4.93;;
10479;SDS011;12789;42.610;23.040;2024-01-27T10:18:58;6.63;;;4.70;;
10479;SDS011;12789;42.610;23.040;2024-01-27T10:21:39;5.63;;;4.37;;
10479;SDS011;12789;42.610;23.040;2024-01-27T10:24:06;15.30;;;8.83;;
10479;SDS011;12789;42.610;23.040;2024-01-27T10:26:40;15.43;;;7.23;;
10479;SDS011;12789;42.610;23.040;2024-01-27T10:29:08;15.87;;;7.43;;
10479;SDS011;12789;42.610;23.040;2024-01-27T10:31:36;8.00;;;4.87;;
10479;SDS011;12789;42.610;23.040;2024-01-27T10:34:08;8.77;;;5.10;;
10479;SDS011;12789;42.610;23.040;2024-01-27T10:36:41;4.37;;;3.67;;
10479;SDS011;12789;42.610;23.040;2024-01-27T10:39:18;4.03;;;3.60;;
10479;SDS011;12789;42.610;23.040;2024-01-27T10:41:48;8.07;;;5.27;;
10479;SDS011;12789;42.610;23.040;2024-01-27T10:44:16;5.67;;;3.80;;
10479;SDS011;12789;42.610;23.040;2024-01-27T10:46:44;7.20;;;5.30;;
10479;SDS011;12789;42.610;23.040;2024-01-27T10:49:12;8.93;;;6.30;;
10479;SDS011;12789;42.610;23.040;2024-01-27T10:51:46;6.87;;;4.20;;
10479;SDS011;12789;42.610;23.040;2024-01-27T10:54:21;4.90;;;3.83;;
10479;SDS011;12789;42.610;23.040;2024-01-27T10:56:50;13.63;;;8.37;;
10479;SDS011;12789;42.610;23.040;2024-01-27T10:59:19;11.10;;;4.97;;
10479;SDS011;12789;42.610;23.040;2024-01-27T11:01:48;5.10;;;3.67;;
10479;SDS011;12789;42.610;23.040;2024-01-27T11:04:18;6.33;;;4.37;;
10479;SDS011;12789;42.610;23.040;2024-01-27T11:06:47;6.43;;;3.90;;
10479;SDS011;12789;42.610;23.040;2024-01-27T11:09:15;2.87;;;1.97;;
10479;SDS011;12789;42.610;23.040;2024-01-27T11:11:43;8.23;;;4.73;;
10479;SDS011;12789;42.610;23.040;2024-01-27T11:14:11;7.37;;;4.10;;
10479;SDS011;12789;42.610;23.040;2024-01-27T11:16:38;11.53;;;7.33;;
10479;SDS011;12789;42.610;23.040;2024-01-27T11:19:09;4.30;;;3.90;;
10479;SDS011;12789;42.610;23.040;2024-01-27T11:21:37;9.33;;;5.93;;
10479;SDS011;12789;42.610;23.040;2024-01-27T11:24:13;6.47;;;4.47;;
10479;SDS011;12789;42.610;23.040;2024-01-27T11:26:41;5.90;;;4.20;;
10479;SDS011;12789;42.610;23.040;2024-01-27T11:29:08;3.63;;;3.17;;
10479;SDS011;12789;42.610;23.040;2024-01-27T11:31:46;37.83;;;24.07;;
10479;SDS011;12789;42.610;23.040;2024-01-27T11:34:17;3.33;;;3.03;;
10479;SDS011;12789;42.610;23.040;2024-01-27T11:36:45;6.60;;;4.63;;
10479;SDS011;12789;42.610;23.040;2024-01-27T11:39:26;5.37;;;3.27;;
10479;SDS011;12789;42.610;23.040;2024-01-27T11:42:03;3.83;;;3.40;;
10479;SDS011;12789;42.610;23.040;2024-01-27T11:44:33;3.87;;;3.50;;
10479;SDS011;12789;42.610;23.040;2024-01-27T11:47:01;5.20;;;3.23;;
10479;SDS011;12789;42.610;23.040;2024-01-27T11:49:28;5.90;;;3.60;;
10479;SDS011;12789;42.610;23.040;2024-01-27T11:51:55;4.80;;;3.83;;
10479;SDS011;12789;42.610;23.040;2024-01-27T11:54:22;3.23;;;2.70;;
10479;SDS011;12789;42.610;23.040;2024-01-27T11:56:50;5.80;;;4.23;;
10479;SDS011;12789;42.610;23.040;2024-01-27T11:59:17;4.40;;;3.70;;
10479;SDS011;12789;42.610;23.040;2024-01-27T12:01:43;3.20;;;2.90;;
10479;SDS011;12789;42.610;23.040;2024-01-27T12:04:10;4.90;;;3.00;;
10479;SDS011;12789;42.610;23.040;2024-01-27T12:06:39;4.90;;;3.20;;
10479;SDS011;12789;42.610;23.040;2024-01-27T12:09:06;5.67;;;3.70;;
10479;SDS011;12789;42.610;23.040;2024-01-27T12:11:37;8.53;;;5.83;;
10479;SDS011;12789;42.610;23.040;2024-01-27T12:14:06;4.87;;;3.37;;
10479;SDS011;12789;42.610;23.040;2024-01-27T12:16:33;9.40;;;6.03;;
10479;SDS011;12789;42.610;23.040;2024-01-27T12:19:00;15.37;;;8.63;;
10479;SDS011;12789;42.610;23.040;2024-01-27T12:21:27;7.13;;;4.10;;
10479;SDS011;12789;42.610;23.040;2024-01-27T12:23:55;6.03;;;4.27;;
10479;SDS011;12789;42.610;23.040;2024-01-27T12:26:22;3.93;;;3.33;;
10479;SDS011;12789;42.610;23.040;2024-01-27T12:28:51;4.40;;;3.10;;
10479;SDS011;12789;42.610;23.040;2024-01-27T12:31:21;2.87;;;2.60;;
10479;SDS011;12789;42.610;23.040;2024-01-27T12:33:49;3.67;;;2.80;;
10479;SDS011;12789;42.610;23.040;2024-01-27T12:36:17;2.83;;;2.53;;
10479;SDS011;12789;42.610;23.040;2024-01-27T12:38:46;3.50;;;2.60;;
10479;SDS011;12789;42.610;23.040;2024-01-27T12:41:13;4.27;;;3.87;;
10479;SDS011;12789;42.610;23.040;2024-01-27T12:43:40;3.17;;;1.90;;
10479;SDS011;12789;42.610;23.040;2024-01-27T12:46:07;2.70;;;2.50;;
10479;SDS011;12789;42.610;23.040;2024-01-27T12:48:37;2.30;;;2.10;;
10479;SDS011;12789;42.610;23.040;2024-01-27T12:51:05;2.57;;;2.33;;
10479;SDS011;12789;42.610;23.040;2024-01-27T12:53:31;2.03;;;1.90;;
10479;SDS011;12789;42.610;23.040;2024-01-27T12:55:58;4.57;;;3.27;;
10479;SDS011;12789;42.610;23.040;2024-01-27T12:58:25;2.33;;;2.13;;
10479;SDS011;12789;42.610;23.040;2024-01-27T13:00:52;3.33;;;2.80;;
10479;SDS011;12789;42.610;23.040;2024-01-27T13:03:19;3.47;;;2.47;;
10479;SDS011;12789;42.610;23.040;2024-01-27T13:05:47;1.50;;;1.40;;
10479;SDS011;12789;42.610;23.040;2024-01-27T13:08:14;2.83;;;2.63;;
10479;SDS011;12789;42.610;23.040;2024-01-27T13:10:41;3.20;;;2.40;;
10479;SDS011;12789;42.610;23.040;2024-01-27T13:13:08;3.30;;;2.50;;
10479;SDS011;12789;42.610;23.040;2024-01-27T13:15:34;2.83;;;2.60;;
10479;SDS011;12789;42.610;23.040;2024-01-27T13:18:01;4.20;;;3.20;;
10479;SDS011;12789;42.610;23.040;2024-01-27T13:20:28;6.33;;;3.40;;
10479;SDS011;12789;42.610;23.040;2024-01-27T13:22:56;3.33;;;2.63;;
10479;SDS011;12789;42.610;23.040;2024-01-27T13:25:23;2.30;;;2.10;;
10479;SDS011;12789;42.610;23.040;2024-01-27T13:27:50;3.77;;;2.60;;
10479;SDS011;12789;42.610;23.040;2024-01-27T13:30:17;4.27;;;3.50;;
10479;SDS011;12789;42.610;23.040;2024-01-27T13:32:44;4.97;;;2.70;;
10479;SDS011;12789;42.610;23.040;2024-01-27T13:35:11;5.47;;;4.20;;
10479;SDS011;12789;42.610;23.040;2024-01-27T13:37:38;4.47;;;3.13;;
10479;SDS011;12789;42.610;23.040;2024-01-27T13:40:07;9.30;;;5.40;;
10479;SDS011;12789;42.610;23.040;2024-01-27T13:42:35;5.37;;;3.30;;
10479;SDS011;12789;42.610;23.040;2024-01-27T13:45:02;5.43;;;3.30;;
10479;SDS011;12789;42.610;23.040;2024-01-27T13:47:29;4.97;;;2.93;;
10479;SDS011;12789;42.610;23.040;2024-01-27T13:49:56;2.50;;;2.30;;
10479;SDS011;12789;42.610;23.040;2024-01-27T13:52:24;4.43;;;2.20;;
10479;SDS011;12789;42.610;23.040;2024-01-27T13:54:50;2.87;;;2.40;;
10479;SDS011;12789;42.610;23.040;2024-01-27T13:57:18;3.83;;;2.70;;
10479;SDS011;12789;42.610;23.040;2024-01-27T13:59:45;3.97;;;3.23;;
10479;SDS011;12789;42.610;23.040;2024-01-27T14:02:12;4.07;;;3.63;;
10479;SDS011;12789;42.610;23.040;2024-01-27T14:04:39;5.30;;;3.17;;
10479;SDS011;12789;42.610;23.040;2024-01-27T14:07:06;3.30;;;1.97;;
10479;SDS011;12789;42.610;23.040;2024-01-27T14:09:34;2.90;;;1.87;;
10479;SDS011;12789;42.610;23.040;2024-01-27T14:12:01;7.87;;;4.70;;
10479;SDS011;12789;42.610;23.040;2024-01-27T14:14:30;4.60;;;3.90;;
10479;SDS011;12789;42.610;23.040;2024-01-27T14:16:56;5.30;;;3.53;;
10479;SDS011;12789;42.610;23.040;2024-01-27T14:19:23;4.80;;;2.90;;
10479;SDS011;12789;42.610;23.040;2024-01-27T14:21:50;7.80;;;3.60;;
10479;SDS011;12789;42.610;23.040;2024-01-27T14:24:17;4.90;;;3.00;;
10479;SDS011;12789;42.610;23.040;2024-01-27T14:26:43;4.03;;;2.90;;
10479;SDS011;12789;42.610;23.040;2024-01-27T14:29:10;5.80;;;3.40;;
10479;SDS011;12789;42.610;23.040;2024-01-27T14:31:38;3.33;;;2.80;;
10479;SDS011;12789;42.610;23.040;2024-01-27T14:34:05;6.27;;;4.10;;
10479;SDS011;12789;42.610;23.040;2024-01-27T14:36:32;5.50;;;4.17;;
10479;SDS011;12789;42.610;23.040;2024-01-27T14:38:59;9.33;;;6.07;;
10479;SDS011;12789;42.610;23.040;2024-01-27T14:41:26;10.33;;;5.30;;
10479;SDS011;12789;42.610;23.040;2024-01-27T14:43:53;5.50;;;4.30;;
10479;SDS011;12789;42.610;23.040;2024-01-27T14:46:20;13.67;;;9.87;;
10479;SDS011;12789;42.610;23.040;2024-01-27T14:48:50;10.13;;;6.80;;
10479;SDS011;12789;42.610;23.040;2024-01-27T14:51:16;7.10;;;5.30;;
10479;SDS011;12789;42.610;23.040;2024-01-27T14:53:43;5.67;;;3.83;;
10479;SDS011;12789;42.610;23.040;2024-01-27T14:56:11;6.73;;;4.23;;
10479;SDS011;12789;42.610;23.040;2024-01-27T14:58:38;4.87;;;3.53;;